Time;durP1;ratioP1;P1;durP2;ratioP2;P2;SDS_P1;SDS_P2;PMS_P1;PMS_P2;Temp;Humidity;BMP_temperature;BMP_pressure;BME280_temperature;BME280_humidity;BME280_pressure;Samples;Min_cycle;Max_cycle;Signal;HPM_P1;HPM_P2
2023/05/10 00:01:44;;;;;;;;;;;;;;;6.31;52.44;101872.60;108725;1256;124774;-83
2023/05/10 00:04:11;;;;;;;;;;;;;;;6.27;52.51;101872.05;108772;1259;60587;-84
2023/05/10 00:06:37;;;;;;;;;;;;;;;6.24;52.71;101868.88;107977;1260;60323;-84
2023/05/10 00:09:05;;;;;;;;;;;;;;;6.22;52.69;101869.12;107641;1261;124474;-84
2023/05/10 00:11:31;;;;;;;;;;;;;;;6.19;52.89;101870.32;108056;1257;67081;-84
2023/05/10 00:13:58;;;;;;;;;;;;;;;6.16;53.02;101870.29;107900;1256;124298;-84
2023/05/10 00:16:25;;;;;;;;;;;;;;;6.13;53.10;101868.91;107280;1257;441392;-85
2023/05/10 00:18:52;;;;;;;;;;;;;;;6.09;53.23;101865.55;107738;1257;60840;-84
2023/05/10 00:21:19;;;;;;;;;;;;;;;6.07;53.40;101868.55;107747;1257;124857;-84
2023/05/10 00:23:48;;;;;;;;;;;;;;;6.04;53.38;101869.42;108085;1257;67028;-85
2023/05/10 00:26:16;;;;;;;;;;;;;;;6.01;53.55;101866.80;107920;1257;124320;-84
2023/05/10 00:28:44;;;;;;;;;;;;;;;5.99;53.67;101867.86;108086;1256;60585;-84
2023/05/10 00:31:11;;;;;;;;;;;;;;;5.96;53.80;101871.89;108000;1257;60385;-84
2023/05/10 00:33:38;;;;;;;;;;;;;;;5.93;54.00;101869.40;107460;1256;124280;-84
2023/05/10 00:36:07;;;;;;;;;;;;;;;5.90;54.06;101873.90;107390;1256;67643;-84
2023/05/10 00:38:34;;;;;;;;;;;;;;;5.86;53.99;101873.16;107410;1257;124218;-84
2023/05/10 00:41:01;;;;;;;;;;;;;;;5.85;54.17;101872.38;107608;1258;61706;-84
2023/05/10 00:43:28;;;;;;;;;;;;;;;5.82;54.34;101872.40;107716;1256;61638;-84
2023/05/10 00:45:55;;;;;;;;;;;;;;;5.80;54.37;101874.84;107502;1257;124149;-84
2023/05/10 00:48:24;;;;;;;;;;;;;;;5.77;54.51;101874.36;107671;1257;67641;-84
2023/05/10 00:50:51;;;;;;;;;;;;;;;5.74;54.53;101872.41;107684;1257;124252;-84
2023/05/10 00:53:18;;;;;;;;;;;;;;;5.72;54.58;101872.27;108065;1256;60568;-84
2023/05/10 00:55:46;;;;;;;;;;;;;;;5.69;54.65;101867.23;107672;1256;124443;-84
2023/05/10 00:58:13;;;;;;;;;;;;;;;5.65;54.97;101867.36;108133;1259;75485;-83
2023/05/10 01:00:48;;;;;;;;;;;;;;;5.63;54.82;101865.95;107634;1257;66076;-84
2023/05/10 01:03:15;;;;;;;;;;;;;;;5.60;54.84;101862.98;107210;1257;124292;-84
2023/05/10 01:05:43;;;;;;;;;;;;;;;5.57;55.05;101862.30;107438;1256;60435;-84
2023/05/10 01:08:10;;;;;;;;;;;;;;;5.54;55.21;101860.55;107457;1256;125022;-84
2023/05/10 01:10:37;;;;;;;;;;;;;;;5.52;55.34;101861.29;107372;1256;75512;-86
2023/05/10 01:13:10;;;;;;;;;;;;;;;5.49;55.31;101857.26;107463;1257;67622;-84
2023/05/10 01:15:38;;;;;;;;;;;;;;;5.47;55.46;101856.59;107605;1257;124176;-85
2023/05/10 01:18:05;;;;;;;;;;;;;;;5.44;55.66;101858.35;107694;1256;60441;-85
2023/05/10 01:20:35;;;;;;;;;;;;;;;5.41;55.62;101856.27;107664;1256;124308;-85
2023/05/10 01:23:18;;;;;;;;;;;;;;;5.39;55.82;101854.36;107782;1256;75862;-84
2023/05/10 01:25:51;;;;;;;;;;;;;;;5.36;55.87;101851.08;107665;1257;124454;-84
2023/05/10 01:28:18;;;;;;;;;;;;;;;5.34;55.96;101851.10;107792;1257;71447;-83
2023/05/10 01:31:00;;;;;;;;;;;;;;;5.31;56.22;101851.55;107901;1256;60410;-83
2023/05/10 01:33:39;;;;;;;;;;;;;;;5.28;56.10;101850.15;107737;1256;124860;-83
2023/05/10 01:36:09;;;;;;;;;;;;;;;5.25;56.25;101847.59;107761;1257;75002;-84
2023/05/10 01:38:43;;;;;;;;;;;;;;;5.23;56.44;101843.63;107689;1256;124675;-84
2023/05/10 01:41:28;;;;;;;;;;;;;;;5.21;56.37;101841.41;107660;1256;70441;-84
2023/05/10 01:43:57;;;;;;;;;;;;;;;5.19;56.48;101845.63;107564;1256;124236;-84
2023/05/10 01:46:37;;;;;;;;;;;;;;;5.18;56.59;101845.54;107686;1257;62054;-84
2023/05/10 01:49:08;;;;;;;;;;;;;;;5.16;56.60;101846.27;107709;1256;76007;-84
2023/05/10 01:51:51;;;;;;;;;;;;;;;5.14;56.67;101843.20;107858;1256;123625;-84
2023/05/10 01:54:19;;;;;;;;;;;;;;;5.11;56.70;101846.13;108055;1257;71523;-84
2023/05/10 01:56:47;;;;;;;;;;;;;;;5.08;56.83;101845.77;108182;1257;124749;-84
2023/05/10 01:59:15;;;;;;;;;;;;;;;5.06;56.90;101844.42;108241;1262;60260;-84
2023/05/10 02:01:42;;;;;;;;;;;;;;;5.03;56.89;101845.95;107866;1256;125598;-84
2023/05/10 02:04:09;;;;;;;;;;;;;;;5.00;56.93;101846.15;108040;1257;67168;-83
2023/05/10 02:06:36;;;;;;;;;;;;;;;4.98;57.12;101847.75;107687;1262;72667;-84
2023/05/10 02:09:03;;;;;;;;;;;;;;;4.96;57.13;101844.99;107955;1256;124081;-83
2023/05/10 02:11:30;;;;;;;;;;;;;;;4.94;57.23;101842.10;108348;1256;61977;-83
2023/05/10 02:13:58;;;;;;;;;;;;;;;4.92;57.36;101837.79;108358;1257;124886;-84
2023/05/10 02:16:26;;;;;;;;;;;;;;;4.90;57.33;101837.10;107828;1257;65726;-84
2023/05/10 02:18:55;;;;;;;;;;;;;;;4.87;57.39;101840.57;107978;1257;72438;-84
2023/05/10 02:21:23;;;;;;;;;;;;;;;4.84;57.54;101838.16;107872;1257;124908;-84
2023/05/10 02:23:50;;;;;;;;;;;;;;;4.82;57.62;101838.21;107652;1257;61818;-83
2023/05/10 02:26:17;;;;;;;;;;;;;;;4.80;57.73;101837.52;107296;1263;124431;-83
2023/05/10 02:28:44;;;;;;;;;;;;;;;4.79;57.92;101835.36;107635;1257;66821;-84
2023/05/10 02:31:11;;;;;;;;;;;;;;;4.77;57.73;101837.48;107637;1256;72492;-84
2023/05/10 02:33:41;;;;;;;;;;;;;;;4.75;57.97;101834.75;107687;1257;124333;-84
2023/05/10 02:36:08;;;;;;;;;;;;;;;4.73;58.11;101836.55;108368;1258;60258;-83
2023/05/10 02:38:35;;;;;;;;;;;;;;;4.72;58.02;101834.73;107808;1257;124908;-83
2023/05/10 02:41:02;;;;;;;;;;;;;;;4.71;58.24;101835.90;107695;1261;64787;-84
2023/05/10 02:43:35;;;;;;;;;;;;;;;4.71;58.18;101834.63;107586;1257;71398;-84
2023/05/10 02:46:02;;;;;;;;;;;;;;;4.70;58.21;101837.73;107566;1257;124787;-84
2023/05/10 02:48:29;;;;;;;;;;;;;;;4.69;58.28;101833.51;107752;1262;60794;-84
2023/05/10 02:50:57;;;;;;;;;;;;;;;4.70;58.35;101830.73;107749;1257;124225;-84
2023/05/10 02:53:28;;;;;;;;;;;;;;;4.70;58.54;101832.84;107840;1261;66297;-85
2023/05/10 02:55:56;;;;;;;;;;;;;;;4.72;58.33;101836.09;107515;1260;124286;-83
2023/05/10 02:58:23;;;;;;;;;;;;;;;4.72;58.35;101834.19;107855;1262;61827;-83
2023/05/10 03:00:50;;;;;;;;;;;;;;;4.75;58.49;101837.04;107870;1262;62030;-84
2023/05/10 03:03:26;;;;;;;;;;;;;;;4.79;58.63;101837.45;107620;1256;124018;-86
2023/05/10 03:05:55;;;;;;;;;;;;;;;4.83;58.66;101840.33;107867;1257;65773;-83
2023/05/10 03:08:23;;;;;;;;;;;;;;;4.86;58.60;101841.20;107644;1260;124319;-83
2023/05/10 03:10:54;;;;;;;;;;;;;;;4.90;58.67;101840.92;107498;1262;61902;-84
2023/05/10 03:13:41;;;;;;;;;;;;;;;4.94;58.63;101845.88;107874;1257;61023;-85
2023/05/10 03:16:08;;;;;;;;;;;;;;;5.00;58.64;101840.91;108144;1256;75593;-83
2023/05/10 03:18:42;;;;;;;;;;;;;;;5.07;58.62;101841.55;107788;1257;65500;-86
2023/05/10 03:21:12;;;;;;;;;;;;;;;5.16;58.62;101843.67;107621;1261;124653;-84
2023/05/10 03:23:44;;;;;;;;;;;;;;;5.25;58.68;101841.48;107581;1257;60384;-84
2023/05/10 03:26:15;;;;;;;;;;;;;;;5.37;58.60;101841.38;107349;1262;124892;-84
2023/05/10 03:28:42;;;;;;;;;;;;;;;5.50;58.50;101839.56;107483;1256;73315;-84
2023/05/10 03:31:10;;;;;;;;;;;;;;;5.67;58.44;101838.52;107610;1257;65782;-84
2023/05/10 03:33:45;;;;;;;;;;;;;;;5.88;58.52;101838.60;107606;1257;124446;-85
2023/05/10 03:36:13;;;;;;;;;;;;;;;6.35;58.68;101836.04;107448;1257;61835;-84
2023/05/10 03:38:40;;;;;;;;;;;;;;;7.55;59.58;101835.51;107664;1257;124627;-85
2023/05/10 03:41:07;;;;;;;;;;;;;;;9.32;59.23;101830.02;108069;1257;75469;-85
2023/05/10 03:43:35;;;;;;;;;;;;;;;11.08;57.75;101824.91;108114;1261;67608;-84
2023/05/10 03:46:05;;;;;;;;;;;;;;;12.71;55.86;101816.65;107813;1257;124537;-84
2023/05/10 03:48:35;;;;;;;;;;;;;;;14.20;53.91;101816.45;107695;1261;61919;-84
2023/05/10 03:51:02;;;;;;;;;;;;;;;15.52;51.81;101812.27;107632;1258;124635;-84
2023/05/10 03:53:29;;;;;;;;;;;;;;;16.74;50.20;101808.43;108835;1257;75517;-87
2023/05/10 03:55:56;;;;;;;;;;;;;;;17.92;48.49;101807.28;107635;1256;124570;-87
2023/05/10 03:58:23;;;;;;;;;;;;;;;19.02;46.81;101804.08;107701;1258;71060;-85
2023/05/10 04:00:51;;;;;;;;;;;;;;;20.07;45.18;101802.11;107779;1260;61123;-84
2023/05/10 04:03:18;;;;;;;;;;;;;;;21.05;43.53;101795.23;107742;1260;125007;-84
2023/05/10 04:05:45;;;;;;;;;;;;;;;21.88;41.99;101796.42;108218;1261;74948;-83
2023/05/10 04:08:12;;;;;;;;;;;;;;;22.69;40.77;101795.89;108289;1257;125517;-84
2023/05/10 04:10:39;;;;;;;;;;;;;;;23.61;39.55;101795.68;107921;1258;71846;-83
2023/05/10 04:13:06;;;;;;;;;;;;;;;24.41;38.24;101790.27;107765;1257;61724;-84
2023/05/10 04:15:33;;;;;;;;;;;;;;;25.03;36.65;101790.13;107956;1256;125153;-83
2023/05/10 04:18:00;;;;;;;;;;;;;;;25.59;35.88;101791.02;107896;1258;75478;-84
2023/05/10 04:20:27;;;;;;;;;;;;;;;26.31;34.81;101791.61;107408;1263;124627;-85
2023/05/10 04:22:54;;;;;;;;;;;;;;;26.75;33.74;101790.50;107629;1262;72743;-82
2023/05/10 04:25:21;;;;;;;;;;;;;;;27.28;32.92;101793.98;107713;1257;62034;-85
2023/05/10 04:27:48;;;;;;;;;;;;;;;27.82;32.18;101786.65;107707;1257;124919;-86
2023/05/10 04:30:17;;;;;;;;;;;;;;;28.42;31.25;101788.02;107763;1257;74391;-84
2023/05/10 04:32:44;;;;;;;;;;;;;;;28.95;30.59;101789.84;107836;1262;124976;-83
2023/05/10 04:35:11;;;;;;;;;;;;;;;29.40;29.79;101790.59;107825;1263;63900;-84
2023/05/10 04:37:38;;;;;;;;;;;;;;;29.99;29.25;101785.45;107691;1262;61093;-85
2023/05/10 04:40:06;;;;;;;;;;;;;;;30.52;28.44;101789.63;107770;1258;60854;-85
2023/05/10 04:42:33;;;;;;;;;;;;;;;30.79;27.51;101786.68;107892;1256;75641;-83
2023/05/10 04:45:00;;;;;;;;;;;;;;;30.94;27.12;101783.50;107871;1260;124626;-83
2023/05/10 04:47:27;;;;;;;;;;;;;;;31.32;26.57;101786.70;108051;1260;64597;-81
2023/05/10 04:49:53;;;;;;;;;;;;;;;31.70;26.18;101786.80;107776;1258;124620;-82
2023/05/10 04:52:20;;;;;;;;;;;;;;;32.25;25.76;101783.05;107672;1260;61898;-83
2023/05/10 04:54:47;;;;;;;;;;;;;;;32.71;25.18;101786.57;107454;1257;75224;-83
2023/05/10 04:57:21;;;;;;;;;;;;;;;32.90;24.53;101781.77;107414;1258;125256;-85
2023/05/10 04:59:48;;;;;;;;;;;;;;;33.10;24.17;101785.10;107453;1262;64628;-81
2023/05/10 05:02:15;;;;;;;;;;;;;;;33.34;23.57;101787.11;107732;1258;124582;-83
2023/05/10 05:04:42;;;;;;;;;;;;;;;33.49;23.28;101786.98;107778;1257;62038;-82
2023/05/10 05:07:10;;;;;;;;;;;;;;;33.76;22.98;101786.08;107492;1257;66932;-85
2023/05/10 05:09:39;;;;;;;;;;;;;;;33.94;22.55;101787.42;107355;1260;124492;-84
2023/05/10 05:12:06;;;;;;;;;;;;;;;33.92;22.13;101784.60;107557;1258;63188;-85
2023/05/10 05:14:33;;;;;;;;;;;;;;;33.99;21.88;101785.52;107443;1257;124529;-84
2023/05/10 05:17:00;;;;;;;;;;;;;;;33.94;21.47;101781.25;107815;1257;60392;-85
2023/05/10 05:19:27;;;;;;;;;;;;;;;34.02;21.49;101785.52;107613;1262;66580;-84
2023/05/10 05:21:55;;;;;;;;;;;;;;;34.07;21.29;101785.02;107702;1257;124490;-82
2023/05/10 05:24:22;;;;;;;;;;;;;;;34.21;21.03;101783.36;107873;1260;62898;-83
2023/05/10 05:26:49;;;;;;;;;;;;;;;34.17;20.89;101785.20;107985;1258;125486;-85
2023/05/10 05:29:16;;;;;;;;;;;;;;;34.21;20.94;101787.89;108144;1257;60402;-84
2023/05/10 05:31:43;;;;;;;;;;;;;;;33.80;20.49;101783.80;107877;1257;124581;-84
2023/05/10 05:34:09;;;;;;;;;;;;;;;31.82;20.04;101784.08;107795;1257;61449;-84
2023/05/10 05:36:39;;;;;;;;;;;;;;;29.27;20.43;101785.65;107594;1257;62488;-84
2023/05/10 05:39:07;;;;;;;;;;;;;;;26.71;21.45;101790.73;107391;1262;124498;-83
2023/05/10 05:41:34;;;;;;;;;;;;;;;24.60;22.39;101786.88;107606;1260;62041;-83
2023/05/10 05:44:02;;;;;;;;;;;;;;;22.99;23.47;101788.27;107751;1258;125399;-83
2023/05/10 05:46:29;;;;;;;;;;;;;;;21.65;24.54;101792.38;107468;1262;66998;-83
2023/05/10 05:48:56;;;;;;;;;;;;;;;20.52;25.45;101793.81;107939;1257;71493;-84
2023/05/10 05:51:32;;;;;;;;;;;;;;;19.56;26.35;101797.29;107871;1257;125255;-84
2023/05/10 05:53:59;;;;;;;;;;;;;;;18.68;27.13;101797.41;107607;1257;60828;-84
2023/05/10 05:56:26;;;;;;;;;;;;;;;17.99;28.01;101795.85;107459;1258;125317;-85
2023/05/10 05:58:53;;;;;;;;;;;;;;;17.47;28.70;101795.90;107853;1257;67059;-85
2023/05/10 06:01:24;;;;;;;;;;;;;;;16.93;29.26;101793.70;107904;1258;71392;-85
2023/05/10 06:03:55;;;;;;;;;;;;;;;16.40;30.05;101792.27;107757;1260;124968;-85
2023/05/10 06:06:25;;;;;;;;;;;;;;;16.08;30.86;101791.31;107622;1257;62089;-85
2023/05/10 06:08:52;;;;;;;;;;;;;;;15.74;31.20;101794.52;107368;1258;124443;-85
2023/05/10 06:11:20;;;;;;;;;;;;;;;15.38;31.58;101798.17;107681;1258;65919;-85
2023/05/10 06:13:47;;;;;;;;;;;;;;;15.11;32.01;101797.05;107917;1257;125284;-85
2023/05/10 06:16:14;;;;;;;;;;;;;;;14.91;32.60;101794.64;108100;1257;60918;-85
2023/05/10 06:18:43;;;;;;;;;;;;;;;14.75;32.97;101796.70;107593;1260;61899;-85
2023/05/10 06:21:10;;;;;;;;;;;;;;;14.53;33.37;101791.89;107589;1260;124551;-85
2023/05/10 06:23:37;;;;;;;;;;;;;;;14.41;33.93;101795.48;108286;1257;66428;-85
2023/05/10 06:26:04;;;;;;;;;;;;;;;14.36;34.21;101793.41;107659;1257;125384;-84
2023/05/10 06:28:32;;;;;;;;;;;;;;;14.28;34.18;101792.83;107439;1257;62098;-85
2023/05/10 06:30:59;;;;;;;;;;;;;;;14.23;34.60;101787.39;107387;1256;61622;-85
2023/05/10 06:33:27;;;;;;;;;;;;;;;14.21;34.82;101788.58;107363;1257;124682;-84
2023/05/10 06:35:54;;;;;;;;;;;;;;;14.19;34.97;101787.30;107654;1257;65570;-84
2023/05/10 06:38:21;;;;;;;;;;;;;;;14.18;35.11;101784.45;107734;1258;124666;-84
2023/05/10 06:40:48;;;;;;;;;;;;;;;14.18;35.17;101788.50;107782;1257;62142;-84
2023/05/10 06:43:15;;;;;;;;;;;;;;;14.17;35.05;101786.18;107548;1260;62064;-85
2023/05/10 06:45:42;;;;;;;;;;;;;;;14.16;35.12;101786.33;107403;1257;124592;-83
2023/05/10 06:48:17;;;;;;;;;;;;;;;14.16;35.36;101787.92;107989;1257;66412;-84
2023/05/10 06:50:58;;;;;;;;;;;;;;;14.20;35.68;101787.51;107411;1257;124903;-84
2023/05/10 06:53:25;;;;;;;;;;;;;;;14.25;35.60;101786.92;107370;1257;62226;-85
2023/05/10 06:55:52;;;;;;;;;;;;;;;14.27;35.65;101782.22;107596;1257;124545;-85
2023/05/10 06:58:19;;;;;;;;;;;;;;;14.27;35.51;101783.11;108066;1257;75952;-85
2023/05/10 07:00:48;;;;;;;;;;;;;;;14.30;35.78;101778.92;107748;1257;67156;-85
2023/05/10 07:03:15;;;;;;;;;;;;;;;14.32;35.51;101772.63;107883;1257;124830;-84
2023/05/10 07:05:42;;;;;;;;;;;;;;;14.36;35.62;101779.63;107510;1261;61938;-84
2023/05/10 07:08:11;;;;;;;;;;;;;;;14.42;35.96;101777.66;107430;1257;124570;-84
2023/05/10 07:10:38;;;;;;;;;;;;;;;14.49;35.79;101776.79;107956;1257;73545;-84
2023/05/10 07:13:05;;;;;;;;;;;;;;;14.51;35.51;101773.66;107736;1257;66599;-84
2023/05/10 07:15:33;;;;;;;;;;;;;;;14.55;35.84;101775.55;107687;1258;124952;-84
2023/05/10 07:18:00;;;;;;;;;;;;;;;14.63;35.89;101771.52;107902;1257;61841;-84
2023/05/10 07:20:27;;;;;;;;;;;;;;;14.71;35.92;101773.48;107493;1258;124949;-84
2023/05/10 07:22:54;;;;;;;;;;;;;;;14.82;35.83;101775.50;108031;1256;75977;-84
2023/05/10 07:25:21;;;;;;;;;;;;;;;14.93;35.66;101772.77;108282;1257;66296;-84
2023/05/10 07:27:48;;;;;;;;;;;;;;;15.00;35.29;101771.85;108162;1260;124669;-84
2023/05/10 07:30:15;;;;;;;;;;;;;;;15.02;35.14;101763.24;107999;1258;60188;-84
2023/05/10 07:32:42;;;;;;;;;;;;;;;15.09;35.12;101766.94;107948;1260;125268;-84
2023/05/10 07:35:09;;;;;;;;;;;;;;;15.13;35.06;101762.97;107796;1257;74684;-84
2023/05/10 07:37:36;;;;;;;;;;;;;;;15.15;35.00;101764.77;107631;1258;65782;-84
2023/05/10 07:40:03;;;;;;;;;;;;;;;15.17;35.10;101764.11;107546;1257;125132;-84
2023/05/10 07:42:30;;;;;;;;;;;;;;;15.22;35.08;101763.35;107848;1257;60390;-84
2023/05/10 07:44:57;;;;;;;;;;;;;;;15.29;34.81;101761.73;107901;1260;124681;-85
2023/05/10 07:47:24;;;;;;;;;;;;;;;15.33;34.66;101761.65;108227;1257;74917;-85
2023/05/10 07:49:51;;;;;;;;;;;;;;;15.42;34.81;101763.60;107957;1257;124782;-85
2023/05/10 07:52:18;;;;;;;;;;;;;;;15.49;34.82;101760.55;107978;1257;72413;-85
2023/05/10 07:54:45;;;;;;;;;;;;;;;15.55;34.59;101762.81;107786;1257;60409;-85
2023/05/10 07:57:15;;;;;;;;;;;;;;;15.60;34.47;101756.55;107277;1257;124996;-85
2023/05/10 07:59:42;;;;;;;;;;;;;;;15.64;33.92;101755.38;107655;1260;74735;-83
2023/05/10 08:02:10;;;;;;;;;;;;;;;15.65;33.72;101755.05;107290;1257;124586;-83
2023/05/10 08:04:37;;;;;;;;;;;;;;;15.70;33.65;101759.22;107630;1257;72258;-83
2023/05/10 08:07:04;;;;;;;;;;;;;;;15.74;33.69;101759.48;107668;1256;61557;-83
2023/05/10 08:09:37;;;;;;;;;;;;;;;15.80;33.77;101751.14;107664;1256;125173;-84
2023/05/10 08:12:04;;;;;;;;;;;;;;;15.88;33.64;101744.56;107772;1257;75457;-82
2023/05/10 08:14:31;;;;;;;;;;;;;;;15.93;33.38;101749.27;107710;1257;124618;-83
2023/05/10 08:16:58;;;;;;;;;;;;;;;15.98;33.51;101747.04;107781;1256;73077;-83
2023/05/10 08:19:25;;;;;;;;;;;;;;;16.05;33.46;101745.95;107821;1256;60136;-82
2023/05/10 08:22:24;;;;;;;;;;;;;;;16.11;33.53;101744.98;107803;1257;124876;-83
2023/05/10 08:24:51;;;;;;;;;;;;;;;16.20;33.09;101742.31;107648;1260;74136;-83
2023/05/10 08:27:18;;;;;;;;;;;;;;;16.26;32.94;101735.86;108670;1256;124870;-83
2023/05/10 08:29:45;;;;;;;;;;;;;;;16.30;32.58;101738.23;108941;1257;73220;-82
2023/05/10 08:32:12;;;;;;;;;;;;;;;16.34;32.62;101735.30;108802;1256;125064;-82
2023/05/10 08:34:39;;;;;;;;;;;;;;;16.40;32.60;101734.70;108535;1257;60667;-83
2023/05/10 08:37:08;;;;;;;;;;;;;;;16.46;32.39;101731.77;107531;1257;75426;-84
2023/05/10 08:39:35;;;;;;;;;;;;;;;16.52;32.42;101730.10;107444;1257;124608;-85
2023/05/10 08:42:03;;;;;;;;;;;;;;;16.58;32.26;101727.71;107785;1257;71411;-82
2023/05/10 08:44:31;;;;;;;;;;;;;;;16.63;32.28;101724.77;107656;1257;124845;-82
2023/05/10 08:46:58;;;;;;;;;;;;;;;16.69;32.17;101717.96;108754;1260;60650;-82
2023/05/10 08:49:25;;;;;;;;;;;;;;;16.74;32.07;101721.23;108640;1256;73779;-83
2023/05/10 08:51:59;;;;;;;;;;;;;;;16.79;31.94;101723.07;107425;1256;124599;-83
2023/05/10 08:54:26;;;;;;;;;;;;;;;16.82;31.78;101724.02;107436;1257;71908;-83
2023/05/10 08:56:53;;;;;;;;;;;;;;;16.83;31.59;101725.48;107384;1257;124427;-83
2023/05/10 08:59:22;;;;;;;;;;;;;;;16.82;31.26;101723.85;107532;1256;60648;-83
2023/05/10 09:01:49;;;;;;;;;;;;;;;16.82;31.31;101725.45;107315;1256;124631;-84
2023/05/10 09:04:22;;;;;;;;;;;;;;;16.82;31.09;101721.90;107556;1256;67113;-84
2023/05/10 09:06:58;;;;;;;;;;;;;;;16.78;31.04;101724.48;107900;1256;72748;-84
2023/05/10 09:09:25;;;;;;;;;;;;;;;16.82;31.27;101721.00;107754;1257;124922;-84
2023/05/10 09:11:52;;;;;;;;;;;;;;;16.87;30.94;101716.13;107549;1263;60575;-84
2023/05/10 09:14:19;;;;;;;;;;;;;;;16.90;30.97;101723.98;107304;1259;125244;-84
2023/05/10 09:16:46;;;;;;;;;;;;;;;16.94;30.86;101719.27;107507;1256;65857;-84
2023/05/10 09:19:13;;;;;;;;;;;;;;;16.96;30.71;101717.48;107514;1257;71396;-85
2023/05/10 09:21:40;;;;;;;;;;;;;;;16.95;30.30;101720.67;107465;1257;124460;-85
2023/05/10 09:24:07;;;;;;;;;;;;;;;16.90;30.03;101718.84;107652;1257;60415;-85
2023/05/10 09:26:35;;;;;;;;;;;;;;;16.83;29.99;101710.40;107487;1258;125248;-84
2023/05/10 09:29:06;;;;;;;;;;;;;;;16.82;30.32;101716.60;107887;1262;67498;-84
2023/05/10 09:31:54;;;;;;;;;;;;;;;16.90;30.49;101712.27;107827;1257;71878;-84
2023/05/10 09:34:28;;;;;;;;;;;;;;;16.98;30.26;101716.30;107495;1256;60161;-84
2023/05/10 09:36:56;;;;;;;;;;;;;;;16.99;30.21;101714.89;107669;1256;61939;-84
2023/05/10 09:39:34;;;;;;;;;;;;;;;17.04;30.25;101711.77;107907;1256;125113;-84
2023/05/10 09:42:03;;;;;;;;;;;;;;;17.04;30.28;101703.42;107947;1257;66744;-84
2023/05/10 09:44:31;;;;;;;;;;;;;;;17.07;30.33;101709.69;107939;1257;124808;-84
2023/05/10 09:46:58;;;;;;;;;;;;;;;17.09;30.07;101702.08;107861;1257;61780;-84
2023/05/10 09:49:25;;;;;;;;;;;;;;;17.09;30.02;101707.77;107810;1257;62040;-85
2023/05/10 09:52:05;;;;;;;;;;;;;;;17.11;29.86;101708.30;107797;1257;124519;-85
2023/05/10 09:54:32;;;;;;;;;;;;;;;17.14;29.93;101709.59;107962;1256;65891;-84
2023/05/10 09:56:59;;;;;;;;;;;;;;;17.16;29.86;101702.88;107982;1257;124682;-84
2023/05/10 09:59:27;;;;;;;;;;;;;;;17.20;29.97;101697.98;107810;1256;61232;-84
2023/05/10 10:01:57;;;;;;;;;;;;;;;17.25;30.16;101701.21;107777;1257;125434;-84
2023/05/10 10:04:24;;;;;;;;;;;;;;;17.33;30.20;101699.71;108145;1256;74005;-84
2023/05/10 10:07:09;;;;;;;;;;;;;;;17.38;29.99;101691.80;107972;1256;67559;-84
2023/05/10 10:09:36;;;;;;;;;;;;;;;17.41;29.97;101693.79;107511;1259;124505;-84
2023/05/10 10:12:04;;;;;;;;;;;;;;;17.42;29.67;101694.88;107896;1257;60800;-84
2023/05/10 10:14:32;;;;;;;;;;;;;;;17.40;29.49;101682.59;107822;1257;125034;-84
2023/05/10 10:17:00;;;;;;;;;;;;;;;17.37;29.72;101681.33;108065;1256;73865;-84
2023/05/10 10:19:27;;;;;;;;;;;;;;;17.42;29.54;101682.27;108066;1256;65893;-84
2023/05/10 10:21:54;;;;;;;;;;;;;;;17.41;29.35;101676.21;108112;1256;125053;-84
2023/05/10 10:24:21;;;;;;;;;;;;;;;17.42;29.43;101667.18;107812;1256;62864;-84
2023/05/10 10:26:48;;;;;;;;;;;;;;;17.47;29.50;101674.00;107450;1258;124631;-85
2023/05/10 10:29:24;;;;;;;;;;;;;;;17.50;29.14;101672.24;107578;1257;75533;-85
2023/05/10 10:32:09;;;;;;;;;;;;;;;17.51;29.11;101670.66;107602;1256;124624;-84
2023/05/10 10:34:36;;;;;;;;;;;;;;;17.51;28.82;101671.02;108073;1258;70677;-84
2023/05/10 10:37:04;;;;;;;;;;;;;;;17.49;28.72;101665.66;107860;1257;60422;-84
2023/05/10 10:39:31;;;;;;;;;;;;;;;17.51;28.82;101666.58;107825;1256;124929;-84
2023/05/10 10:42:02;;;;;;;;;;;;;;;17.55;28.80;101661.81;107772;1260;74661;-84
2023/05/10 10:44:33;;;;;;;;;;;;;;;17.56;28.79;101647.81;107865;1257;126284;-84
2023/05/10 10:47:08;;;;;;;;;;;;;;;17.60;28.82;101650.34;108681;1256;72399;-85
2023/05/10 10:49:41;;;;;;;;;;;;;;;17.57;28.80;101652.44;108746;1256;60363;-84
2023/05/10 10:52:32;;;;;;;;;;;;;;;17.60;28.74;101646.27;108730;1256;125041;-85
2023/05/10 10:55:30;;;;;;;;;;;;;;;17.66;28.91;101644.02;107877;1257;73861;-84
2023/05/10 10:58:02;;;;;;;;;;;;;;;17.75;28.81;101641.98;106979;1266;124607;-85
2023/05/10 11:00:31;;;;;;;;;;;;;;;17.77;28.51;101639.51;107343;1264;72719;-85
2023/05/10 11:03:06;;;;;;;;;;;;;;;17.76;28.64;101636.48;107484;1265;124871;-85
2023/05/10 11:05:34;;;;;;;;;;;;;;;17.81;28.77;101634.92;107220;1265;61944;-85
2023/05/10 11:08:15;;;;;;;;;;;;;;;17.86;28.48;101637.85;107185;1265;125414;-84
2023/05/10 11:11:06;;;;;;;;;;;;;;;17.89;28.61;101632.73;107133;1265;65831;-85
2023/05/10 11:13:43;;;;;;;;;;;;;;;17.93;28.53;101636.84;107246;1264;72721;-84
2023/05/10 11:16:12;;;;;;;;;;;;;;;17.94;28.35;101626.73;107454;1264;124531;-83
2023/05/10 11:18:41;;;;;;;;;;;;;;;17.91;28.42;101622.27;107608;1265;61888;-83
2023/05/10 11:21:10;;;;;;;;;;;;;;;17.93;28.49;101624.06;106869;1264;124768;-83
2023/05/10 11:23:39;;;;;;;;;;;;;;;18.01;28.67;101627.51;107032;1264;65501;-83
2023/05/10 11:26:09;;;;;;;;;;;;;;;18.10;28.31;101627.39;107427;1265;125056;-83
2023/05/10 11:28:45;;;;;;;;;;;;;;;18.11;28.02;101619.42;107573;1264;60933;-84
2023/05/10 11:31:14;;;;;;;;;;;;;;;18.13;28.05;101622.80;107472;1263;60367;-84
2023/05/10 11:33:46;;;;;;;;;;;;;;;18.14;28.03;101623.17;107140;1265;124937;-83
2023/05/10 11:36:14;;;;;;;;;;;;;;;18.16;28.08;101622.12;107596;1258;67033;-84
2023/05/10 11:38:41;;;;;;;;;;;;;;;18.18;28.28;101625.51;107575;1257;124466;-83
2023/05/10 11:41:12;;;;;;;;;;;;;;;18.20;28.33;101617.89;107651;1256;60587;-84
2023/05/10 11:43:39;;;;;;;;;;;;;;;18.25;28.34;101618.99;107379;1257;60696;-84
2023/05/10 11:46:13;;;;;;;;;;;;;;;18.27;28.24;101615.98;107276;1256;125355;-84
2023/05/10 11:48:40;;;;;;;;;;;;;;;18.30;28.63;101616.01;107343;1260;65699;-84
2023/05/10 11:51:07;;;;;;;;;;;;;;;18.37;28.77;101615.52;107655;1257;124936;-85
2023/05/10 11:53:34;;;;;;;;;;;;;;;18.45;28.78;101614.86;107789;1257;60350;-84
2023/05/10 11:56:05;;;;;;;;;;;;;;;18.51;28.56;101612.23;107383;1256;125174;-84
2023/05/10 11:58:32;;;;;;;;;;;;;;;18.53;28.33;101611.52;107607;1259;73493;-84
2023/05/10 12:00:59;;;;;;;;;;;;;;;18.54;28.30;101610.47;107581;1259;67110;-83
2023/05/10 12:03:27;;;;;;;;;;;;;;;18.58;28.20;101612.63;107582;1256;125299;-83
2023/05/10 12:05:54;;;;;;;;;;;;;;;18.59;28.07;101616.19;107659;1258;61845;-83
2023/05/10 12:08:22;;;;;;;;;;;;;;;18.63;28.31;101616.55;108726;1257;124614;-84
2023/05/10 12:10:49;;;;;;;;;;;;;;;18.68;28.33;101606.45;108864;1256;75224;-83
2023/05/10 12:13:16;;;;;;;;;;;;;;;18.72;28.16;101596.87;108774;1257;67141;-83
2023/05/10 12:15:43;;;;;;;;;;;;;;;18.76;27.71;101602.58;107155;1257;346577;-84
2023/05/10 12:18:14;;;;;;;;;;;;;;;18.77;27.57;101599.91;107403;1257;60847;-85
2023/05/10 12:20:41;;;;;;;;;;;;;;;18.75;27.38;101602.59;107582;1256;124378;-85
2023/05/10 12:23:08;;;;;;;;;;;;;;;18.74;27.45;101600.27;107863;1257;75515;-84
2023/05/10 12:25:36;;;;;;;;;;;;;;;18.77;27.57;101598.15;107978;1257;67263;-84
2023/05/10 12:28:06;;;;;;;;;;;;;;;18.81;27.60;101597.13;107406;1256;125216;-84
2023/05/10 12:30:33;;;;;;;;;;;;;;;18.85;27.38;101599.64;107755;1256;60202;-84
2023/05/10 12:33:01;;;;;;;;;;;;;;;18.87;27.47;101600.36;107432;1256;125000;-84
2023/05/10 12:35:31;;;;;;;;;;;;;;;18.90;27.32;101595.92;107572;1257;75299;-83